Time;durP1;ratioP1;P1;durP2;ratioP2;P2;SDS_P1;SDS_P2;PMS_P1;PMS_P2;Temp;Humidity;BMP_temperature;BMP_pressure;BME280_temperature;BME280_humidity;BME280_pressure;Samples;Min_cycle;Max_cycle;Signal;HPM_P1;HPM_P2
2022/05/28 00:01:44;;;;;;;18.48;11.40;;;;;;;23.24;100.00;99955.72;4991021;28;20035;-87
2022/05/28 00:04:20;;;;;;;25.33;12.35;;;;;;;23.21;100.00;99952.72;4958546;28;20045;-85
2022/05/28 00:06:48;;;;;;;27.83;10.80;;;;;;;23.38;100.00;99947.97;4992903;28;20046;-86
2022/05/28 00:09:17;;;;;;;17.88;9.95;;;;;;;23.46;100.00;99947.53;4989169;28;20043;-84
2022/05/28 00:11:44;;;;;;;19.90;10.75;;;;;;;23.53;100.00;99945.44;4991428;28;20101;-86
2022/05/28 00:14:22;;;;;;;21.63;10.45;;;;;;;23.30;100.00;99946.56;5190147;23;20110;-83
2022/05/28 00:16:48;;;;;;;21.15;10.82;;;;;;;23.36;100.00;99939.31;5033516;28;20041;-86
2022/05/28 00:19:13;;;;;;;20.38;10.80;;;;;;;23.36;100.00;99933.91;5030752;28;20195;-86
2022/05/28 00:21:54;;;;;;;22.17;11.50;;;;;;;23.27;100.00;99930.88;5019026;28;20037;-84
2022/05/28 00:24:32;;;;;;;24.42;11.43;;;;;;;23.12;100.00;99922.66;5051604;28;20009;-85
2022/05/28 00:27:38;;;;;;;27.33;11.27;;;;;;;22.96;100.00;99918.19;5018128;28;20132;-85
2022/05/28 00:30:11;;;;;;;17.83;10.98;;;;;;;23.09;100.00;99915.88;4975177;28;20043;-83
2022/05/28 00:32:52;;;;;;;21.85;11.40;;;;;;;23.21;100.00;99921.09;4990951;28;20058;-86
2022/05/28 00:35:20;;;;;;;23.33;11.32;;;;;;;23.18;100.00;99917.03;4970138;28;20075;-85
2022/05/28 00:37:49;;;;;;;27.05;11.60;;;;;;;23.15;100.00;99917.53;4952741;29;20046;-85
2022/05/28 00:40:49;;;;;;;18.25;10.90;;;;;;;23.15;100.00;99917.53;4968649;28;20055;-88
2022/05/28 00:43:17;;;;;;;24.10;12.25;;;;;;;23.11;100.00;99912.91;4968681;28;20094;-85
2022/05/28 00:45:46;;;;;;;26.10;11.15;;;;;;;22.97;100.00;99915.22;4936368;29;20461;-84
2022/05/28 00:48:20;;;;;;;19.45;11.48;;;;;;;22.88;100.00;99910.53;4969590;29;20044;-84
2022/05/28 00:50:46;;;;;;;22.23;11.15;;;;;;;22.85;100.00;99906.47;4971133;29;20131;-83
2022/05/28 00:53:18;;;;;;;32.53;12.07;;;;;;;22.87;100.00;99909.72;4942988;29;20058;-83
2022/05/28 00:58:34;;;;;;;22.88;11.10;;;;;;;22.94;100.00;99904.09;5045926;28;20057;-85
2022/05/28 01:01:02;;;;;;;24.73;11.65;;;;;;;22.87;100.00;99903.53;5047867;28;20026;-84
2022/05/28 01:03:43;;;;;;;27.40;11.68;;;;;;;22.95;100.00;99903.88;5035555;28;20032;-85
2022/05/28 01:06:19;;;;;;;21.63;10.70;;;;;;;22.94;100.00;99904.94;5050714;28;20034;-88
2022/05/28 01:08:55;;;;;;;21.35;11.35;;;;;;;22.84;100.00;99896.72;5050726;28;20041;-87
2022/05/28 01:11:27;;;;;;;20.63;11.32;;;;;;;22.56;100.00;99903.22;5053137;28;20089;-86
2022/05/28 01:14:11;;;;;;;24.20;11.80;;;;;;;22.54;100.00;99899.13;5047924;28;20060;-88
2022/05/28 01:16:46;;;;;;;21.80;11.25;;;;;;;22.45;100.00;99903.34;5050648;28;20311;-85
2022/05/28 01:19:34;;;;;;;26.83;12.38;;;;;;;22.38;100.00;99897.34;5033903;28;20526;-86
2022/05/28 01:22:38;;;;;;;26.95;12.50;;;;;;;22.38;100.00;99900.03;5042808;28;20041;-85
2022/05/28 01:25:13;;;;;;;21.45;10.48;;;;;;;22.41;100.00;99894.13;5020919;28;20101;-84
2022/05/28 01:27:58;;;;;;;24.92;11.38;;;;;;;22.38;100.00;99889.25;5065570;22;20064;-86
2022/05/28 01:30:24;;;;;;;20.63;10.80;;;;;;;22.41;100.00;99894.13;5014979;28;20026;-86
2022/05/28 01:32:53;;;;;;;20.52;12.07;;;;;;;22.53;100.00;99895.63;5028166;28;20045;-85
2022/05/28 01:35:24;;;;;;;36.65;12.70;;;;;;;22.47;100.00;99887.72;5010811;28;20018;-84
2022/05/28 01:37:55;;;;;;;20.10;12.35;;;;;;;22.46;100.00;99886.09;5012319;28;20048;-84
2022/05/28 01:40:25;;;;;;;27.08;13.55;;;;;;;22.32;100.00;99880.28;4992963;28;20042;-83
2022/05/28 01:43:02;;;;;;;19.65;12.43;;;;;;;22.45;100.00;99876.34;5027600;28;20026;-84
2022/05/28 01:45:34;;;;;;;26.70;12.77;;;;;;;22.33;100.00;99871.13;4992874;28;20428;-84
2022/05/28 01:48:05;;;;;;;29.33;13.48;;;;;;;22.18;100.00;99862.84;5009738;28;20046;-83
2022/05/28 01:50:41;;;;;;;25.73;13.88;;;;;;;22.01;100.00;99857.53;5046016;28;20042;-83
2022/05/28 01:54:07;;;;;;;27.00;13.85;;;;;;;22.01;100.00;99857.53;5030564;28;20044;-84
2022/05/28 01:56:09;;;;;;;27.95;13.68;;;;;;;21.89;100.00;99848.75;5042885;28;20073;-84
2022/05/28 01:58:39;;;;;;;28.20;14.57;;;;;;;21.81;100.00;99843.75;5029649;28;20101;-86
2022/05/28 02:01:08;;;;;;;30.00;13.93;;;;;;;21.76;100.00;99843.72;5015843;28;20053;-84
2022/05/28 02:03:38;;;;;;;28.25;14.55;;;;;;;21.68;100.00;99841.44;5028829;28;20037;-87
2022/05/28 02:06:04;;;;;;;37.67;15.00;;;;;;;21.60;100.00;99839.22;5013269;28;20038;-87
2022/05/28 02:08:41;;;;;;;20.35;14.48;;;;;;;21.55;100.00;99837.25;5032879;28;20025;-87
2022/05/28 02:11:16;;;;;;;34.33;14.85;;;;;;;21.59;100.00;99842.97;5032017;28;20037;-87
2022/05/28 02:13:50;;;;;;;34.40;15.98;;;;;;;21.69;100.00;99835.00;5027272;28;20053;-85
2022/05/28 02:16:21;;;;;;;27.80;15.88;;;;;;;21.65;100.00;99831.97;5011555;28;20061;-85
2022/05/28 02:18:52;;;;;;;23.38;14.93;;;;;;;21.65;100.00;99831.97;5029528;28;20067;-85
2022/05/28 02:21:31;;;;;;;31.48;14.55;;;;;;;21.70;100.00;99828.53;5031502;28;20026;-84
2022/05/28 02:24:22;;;;;;;28.17;14.85;;;;;;;21.83;100.00;99827.34;5040977;28;20038;-86
2022/05/28 02:27:06;;;;;;;25.27;13.82;;;;;;;21.83;100.00;99819.25;5029198;28;20038;-87
2022/05/28 02:29:37;;;;;;;27.67;13.77;;;;;;;21.84;100.00;99815.50;5029637;28;20042;-89
2022/05/28 02:32:21;;;;;;;30.50;13.93;;;;;;;21.67;100.00;99807.47;5026862;28;20037;-87
2022/05/28 02:34:50;;;;;;;32.33;14.05;;;;;;;21.60;100.00;99807.66;5026589;28;20061;-85
2022/05/28 02:37:20;;;;;;;29.95;13.77;;;;;;;21.64;100.00;99810.69;5023085;28;20030;-87
2022/05/28 02:39:46;;;;;;;28.02;14.40;;;;;;;21.52;100.00;99804.56;5007626;28;20085;-87
2022/05/28 02:42:21;;;;;;;28.38;13.80;;;;;;;21.54;100.00;99802.47;5030590;28;20037;-86
2022/05/28 02:44:52;;;;;;;20.08;13.15;;;;;;;21.61;100.00;99798.47;5028965;28;20037;-85
2022/05/28 02:47:17;;;;;;;24.88;13.07;;;;;;;21.63;100.00;99795.56;5030613;28;20161;-85
2022/05/28 02:49:46;;;;;;;26.65;12.55;;;;;;;21.74;100.00;99800.00;5018462;28;20100;-84
2022/05/28 02:52:18;;;;;;;28.90;13.68;;;;;;;21.66;100.00;99797.75;5027277;28;20033;-86
2022/05/28 02:54:50;;;;;;;26.52;13.52;;;;;;;21.59;100.00;99786.31;5043142;28;20040;-87
2022/05/28 02:57:15;;;;;;;29.70;13.38;;;;;;;21.68;100.00;99792.91;5026487;28;20033;-84
2022/05/28 02:59:41;;;;;;;28.88;13.82;;;;;;;21.57;100.00;99797.38;5024140;28;20033;-84
2022/05/28 03:02:07;;;;;;;22.35;13.20;;;;;;;21.66;100.00;99800.44;5026931;28;20072;-87
2022/05/28 03:04:35;;;;;;;28.05;13.95;;;;;;;21.67;100.00;99789.38;5026103;28;20025;-84
2022/05/28 03:07:01;;;;;;;27.77;14.10;;;;;;;21.60;100.00;99804.16;5008049;28;20065;-83
2022/05/28 03:09:26;;;;;;;23.05;13.65;;;;;;;21.60;100.00;99804.16;5027116;28;20614;-85
2022/05/28 03:11:52;;;;;;;24.88;14.10;;;;;;;21.61;100.00;99800.38;5026918;28;20118;-85
2022/05/28 03:14:18;;;;;;;28.90;14.57;;;;;;;21.51;100.00;99800.28;5026354;28;20057;-85
2022/05/28 03:16:47;;;;;;;31.92;14.25;;;;;;;21.47;100.00;99796.44;5008775;28;20030;-87
2022/05/28 03:19:12;;;;;;;26.88;13.70;;;;;;;21.47;100.00;99794.56;5028688;28;20029;-85
2022/05/28 03:21:44;;;;;;;25.67;15.38;;;;;;;21.34;100.00;99796.81;5010522;28;20041;-85
2022/05/28 03:24:11;;;;;;;29.50;17.25;;;;;;;21.23;100.00;99795.84;5007610;28;20042;-86
2022/05/28 03:26:40;;;;;;;27.50;15.45;;;;;;;21.38;100.00;99784.44;5011295;28;20041;-85
2022/05/28 03:29:06;;;;;;;30.67;15.88;;;;;;;21.30;100.00;99790.28;5039564;28;20045;-85
2022/05/28 03:31:32;;;;;;;30.58;14.48;;;;;;;21.27;100.00;99788.91;5024797;28;20033;-84
2022/05/28 03:34:02;;;;;;;36.92;17.60;;;;;;;21.37;100.00;99782.81;5025811;28;20105;-84
2022/05/28 03:36:28;;;;;;;25.33;13.93;;;;;;;21.34;100.00;99777.94;5008355;28;20038;-84
2022/05/28 03:38:58;;;;;;;35.60;13.63;;;;;;;21.41;100.00;99787.44;5027540;28;20076;-85
2022/05/28 03:41:27;;;;;;;29.60;14.48;;;;;;;21.33;100.00;99784.38;5027434;28;20044;-87
2022/05/28 03:43:55;;;;;;;32.28;13.52;;;;;;;21.33;100.00;99792.47;5016319;28;20053;-86
2022/05/28 03:46:29;;;;;;;27.98;13.98;;;;;;;21.38;100.00;99776.34;5027768;28;20459;-84
2022/05/28 03:49:23;;;;;;;27.30;12.65;;;;;;;21.40;100.00;99785.03;5013223;28;20042;-87
2022/05/28 03:51:49;;;;;;;27.58;12.38;;;;;;;21.37;100.00;99801.69;5018326;28;20049;-85
2022/05/28 03:54:35;;;;;;;34.78;12.55;;;;;;;21.33;100.00;99795.16;5030934;28;20091;-84
2022/05/28 03:57:08;;;;;;;30.92;13.02;;;;;;;21.18;100.00;99798.47;5035257;28;20040;-85
2022/05/28 03:59:34;;;;;;;26.48;11.40;;;;;;;21.07;100.00;99799.38;5041494;28;20651;-84
2022/05/28 04:02:02;;;;;;;24.85;11.48;;;;;;;20.95;100.00;99801.31;5008917;28;20034;-86
2022/05/28 04:04:33;;;;;;;30.15;11.82;;;;;;;20.92;100.00;99796.44;5027225;28;20068;-87
2022/05/28 04:07:20;;;;;;;26.08;11.55;;;;;;;20.92;100.00;99789.19;5028015;28;20050;-84
2022/05/28 04:10:07;;;;;;;24.88;11.57;;;;;;;21.05;100.00;99794.22;5011187;28;20049;-84
2022/05/28 04:12:38;;;;;;;24.73;12.18;;;;;;;21.05;100.00;99791.53;5025903;28;20042;-87
2022/05/28 04:15:09;;;;;;;27.83;12.87;;;;;;;20.97;100.00;99789.25;4994004;28;20048;-85
2022/05/28 04:17:38;;;;;;;24.23;12.05;;;;;;;20.96;100.00;99784.94;5027293;28;20036;-84
2022/05/28 04:20:18;;;;;;;23.65;11.88;;;;;;;20.78;100.00;99793.25;5017852;28;20037;-86
2022/05/28 04:22:43;;;;;;;26.88;11.75;;;;;;;20.69;100.00;99792.06;5044431;28;20029;-84
2022/05/28 04:25:09;;;;;;;32.50;12.68;;;;;;;20.54;100.00;99791.81;5030361;28;20124;-84
2022/05/28 04:27:51;;;;;;;29.58;13.10;;;;;;;20.58;100.00;99792.97;5045029;28;20504;-85
2022/05/28 04:30:22;;;;;;;34.95;14.02;;;;;;;20.57;100.00;99796.72;5027864;28;20041;-84
2022/05/28 04:33:07;;;;;;;26.45;12.52;;;;;;;20.85;100.00;99793.91;5052972;23;20065;-87
2022/05/28 04:35:45;;;;;;;21.80;11.65;;;;;;;21.13;100.00;99788.44;5032063;28;20140;-83
2022/05/28 04:38:10;;;;;;;25.25;11.52;;;;;;;21.20;100.00;99792.84;5068027;22;20062;-86
2022/05/28 04:43:21;;;;;;;28.92;11.77;;;;;;;21.28;100.00;99787.81;4998289;26;20042;-85
2022/05/28 04:46:06;;;;;;;24.92;11.77;;;;;;;21.32;100.00;99780.88;5255662;22;20026;-86
2022/05/28 04:48:35;;;;;;;31.05;12.25;;;;;;;21.31;100.00;99781.13;5049684;28;20546;-84
2022/05/28 04:51:01;;;;;;;29.88;12.27;;;;;;;21.29;100.00;99788.63;5050687;28;20032;-84
2022/05/28 04:53:27;;;;;;;25.48;12.20;;;;;;;21.43;100.00;99784.50;5050173;28;20029;-84
2022/05/28 04:55:53;;;;;;;25.33;12.77;;;;;;;21.57;100.00;99775.00;5047456;28;20045;-85
2022/05/28 04:58:21;;;;;;;26.30;11.70;;;;;;;21.65;100.00;99777.22;5046324;28;20047;-86
2022/05/28 05:00:47;;;;;;;25.73;12.15;;;;;;;21.69;100.00;99772.97;5045128;28;20037;-86
2022/05/28 05:03:13;;;;;;;33.47;13.07;;;;;;;21.81;100.00;99773.63;5032329;28;20033;-83
2022/05/28 05:05:43;;;;;;;25.85;12.10;;;;;;;21.89;100.00;99770.53;5015522;28;20056;-85
2022/05/28 05:08:12;;;;;;;;;;;;;;;21.94;100.00;99777.88;5051709;28;20074;-84
2022/05/28 05:10:40;;;;;;;28.25;11.93;;;;;;;21.99;100.00;99773.31;5046697;28;19916;-86
2022/05/28 05:13:06;;;;;;;29.10;12.60;;;;;;;22.11;100.00;99765.06;5046564;28;20040;-84
2022/05/28 05:15:32;;;;;;;27.23;11.50;;;;;;;22.19;100.00;99767.31;5045692;28;20041;-86
2022/05/28 05:18:00;;;;;;;28.27;11.77;;;;;;;22.26;100.00;99772.50;5028828;28;20098;-84
2022/05/28 05:20:28;;;;;;;24.08;11.63;;;;;;;22.32;100.00;99776.88;5042649;28;20076;-85
2022/05/28 05:22:55;;;;;;;34.90;11.15;;;;;;;22.41;100.00;99772.63;5029629;28;20060;-84
2022/05/28 05:25:21;;;;;;;28.52;10.63;;;;;;;22.53;100.00;99778.69;5032272;28;20172;-85
2022/05/28 05:27:46;;;;;;;29.45;12.25;;;;;;;22.63;99.42;99792.25;5037607;28;20038;-86
2022/05/28 05:30:16;;;;;;;34.13;12.02;;;;;;;22.67;99.63;99793.38;5028261;28;20528;-84
2022/05/28 05:32:41;;;;;;;26.50;10.27;;;;;;;22.71;99.45;99785.56;5021824;28;20045;-86
2022/05/28 05:35:09;;;;;;;29.63;11.07;;;;;;;22.79;99.26;99783.22;5018984;28;20115;-87
2022/05/28 05:37:36;;;;;;;30.88;10.95;;;;;;;22.76;100.00;99793.72;5039021;28;20027;-85
2022/05/28 05:40:02;;;;;;;30.48;12.80;;;;;;;22.86;100.00;99794.63;5054301;28;20040;-83
2022/05/28 05:42:27;;;;;;;36.53;13.02;;;;;;;23.01;100.00;99791.19;5037348;28;20033;-83
2022/05/28 05:44:53;;;;;;;24.98;13.15;;;;;;;23.06;100.00;99792.06;5018247;28;20103;-84
2022/05/28 05:47:22;;;;;;;32.55;15.48;;;;;;;22.96;100.00;99794.69;5045621;28;20100;-87
2022/05/28 05:49:50;;;;;;;33.22;16.73;;;;;;;22.93;100.00;99792.50;5008104;28;20049;-88
2022/05/28 05:52:16;;;;;;;33.33;16.27;;;;;;;23.16;100.00;99797.53;5043546;28;20034;-83
2022/05/28 05:54:42;;;;;;;43.88;21.17;;;;;;;23.31;100.00;99796.78;5008454;28;20097;-85
2022/05/28 05:57:08;;;;;;;40.40;21.27;;;;;;;23.47;100.00;99789.56;5027310;28;20029;-87
2022/05/28 05:59:34;;;;;;;35.72;19.90;;;;;;;23.61;100.00;99791.53;5041876;28;20447;-86
2022/05/28 06:02:03;;;;;;;34.03;19.83;;;;;;;23.79;100.00;99798.38;5024101;28;20026;-84
2022/05/28 06:04:30;;;;;;;32.50;18.88;;;;;;;23.77;99.93;99792.38;5044417;28;20416;-85
2022/05/28 06:06:56;;;;;;;37.05;18.17;;;;;;;24.09;97.07;99798.44;5032127;28;20171;-83
2022/05/28 06:09:25;;;;;;;39.50;17.80;;;;;;;24.16;95.20;99807.13;5034443;28;20049;-86
2022/05/28 06:11:52;;;;;;;38.80;13.80;;;;;;;24.30;88.40;99803.91;5044107;28;20093;-86
2022/05/28 06:14:17;;;;;;;30.48;14.52;;;;;;;24.10;90.24;99804.66;5046566;28;20028;-86
2022/05/28 06:16:43;;;;;;;36.72;15.27;;;;;;;24.30;88.89;99801.19;5044626;28;20041;-85
2022/05/28 06:19:09;;;;;;;30.80;14.13;;;;;;;24.65;85.11;99801.22;5046181;28;20047;-84
2022/05/28 06:21:35;;;;;;;27.63;12.13;;;;;;;24.81;83.00;99807.44;5027140;28;20033;-86
2022/05/28 06:24:02;;;;;;;28.33;10.93;;;;;;;24.58;82.08;99806.09;5024380;28;20064;-85
2022/05/28 06:26:28;;;;;;;23.23;9.88;;;;;;;25.05;78.59;99805.81;5007554;28;20492;-85
2022/05/28 06:28:54;;;;;;;29.50;8.90;;;;;;;25.17;74.66;99803.63;5026875;28;20044;-85
2022/05/28 06:31:20;;;;;;;25.38;8.43;;;;;;;25.36;71.01;99801.09;5027283;28;20164;-83
2022/05/28 06:33:46;;;;;;;27.80;8.57;;;;;;;25.90;66.57;99807.44;5026644;28;20121;-84
2022/05/28 06:36:13;;;;;;;23.42;7.68;;;;;;;26.35;67.18;99813.72;5041001;28;20176;-82
2022/05/28 06:38:40;;;;;;;25.80;8.05;;;;;;;26.57;65.65;99808.63;5039314;28;20037;-83
2022/05/28 06:41:15;;;;;;;32.72;7.80;;;;;;;26.64;64.99;99796.34;5039557;28;20033;-85
2022/05/28 06:43:48;;;;;;;21.90;8.25;;;;;;;26.38;65.66;99800.38;5037823;28;20048;-85
2022/05/28 06:46:14;;;;;;;24.30;8.48;;;;;;;26.42;66.53;99798.69;5020779;28;20041;-84
2022/05/28 06:48:40;;;;;;;26.63;8.70;;;;;;;26.28;66.72;99802.34;5040476;28;20093;-83
2022/05/28 06:51:07;;;;;;;21.40;8.75;;;;;;;26.40;66.73;99797.34;5042254;28;20384;-87
2022/05/28 06:53:45;;;;;;;32.03;8.85;;;;;;;26.60;67.40;99799.91;5040606;28;20373;-87
2022/05/28 06:56:13;;;;;;;22.17;8.70;;;;;;;26.68;67.25;99793.88;5040728;28;20037;-84
2022/05/28 06:58:40;;;;;;;31.95;9.15;;;;;;;26.69;67.98;99792.75;5044206;28;20481;-86
2022/05/28 07:01:07;;;;;;;27.67;9.80;;;;;;;26.75;67.54;99797.06;5042189;28;20042;-86
2022/05/28 07:03:33;;;;;;;26.00;8.68;;;;;;;26.96;67.84;99801.25;5040809;28;20036;-84
2022/05/28 07:05:59;;;;;;;34.47;9.93;;;;;;;27.22;66.92;99791.72;5040675;28;20038;-87
2022/05/28 07:08:25;;;;;;;21.50;8.68;;;;;;;27.72;66.70;99800.41;5025646;28;20045;-85
2022/05/28 07:10:54;;;;;;;24.63;9.60;;;;;;;28.03;64.68;99800.81;5007422;28;20071;-88
2022/05/28 07:13:21;;;;;;;32.00;10.90;;;;;;;27.84;63.70;99798.03;5039501;28;20392;-84
2022/05/28 07:15:47;;;;;;;26.17;9.43;;;;;;;28.03;64.17;99789.91;5041286;28;20048;-85
2022/05/28 07:18:14;;;;;;;24.50;9.93;;;;;;;28.14;62.91;99792.19;5040706;28;20037;-88
2022/05/28 07:20:41;;;;;;;29.52;9.90;;;;;;;28.31;62.92;99790.84;5036497;28;20116;-88
2022/05/28 07:23:11;;;;;;;22.40;10.32;;;;;;;28.40;62.76;99791.81;5035217;28;20476;-89
2022/05/28 07:25:38;;;;;;;26.58;10.93;;;;;;;28.25;63.01;99792.88;5037915;28;20484;-85
2022/05/28 07:28:24;;;;;;;29.25;10.77;;;;;;;28.57;62.29;99789.38;5037384;28;20090;-87
2022/05/28 07:30:49;;;;;;;27.77;10.60;;;;;;;28.72;61.22;99786.41;5035114;28;20120;-90
2022/05/28 07:33:15;;;;;;;22.30;9.75;;;;;;;29.02;61.11;99785.84;5017333;28;20069;-86
2022/05/28 07:35:41;;;;;;;29.55;10.80;;;;;;;28.69;61.58;99787.81;5034597;28;20124;-85
2022/05/28 07:38:07;;;;;;;33.13;10.88;;;;;;;28.90;62.29;99780.06;5034983;28;20030;-84
2022/05/28 07:40:35;;;;;;;28.58;9.98;;;;;;;29.05;62.07;99777.06;5016944;28;20051;-86
2022/05/28 07:43:00;;;;;;;27.73;11.35;;;;;;;29.24;60.85;99776.97;5020553;28;20025;-86
2022/05/28 07:45:26;;;;;;;31.48;9.88;;;;;;;29.15;61.60;99773.31;5004975;28;20092;-86
2022/05/28 07:47:53;;;;;;;30.05;10.18;;;;;;;29.03;62.19;99771.13;5021944;28;20030;-85
2022/05/28 07:50:20;;;;;;;22.40;10.85;;;;;;;28.64;61.95;99781.59;5021062;28;20026;-91
2022/05/28 07:52:47;;;;;;;28.38;11.15;;;;;;;28.08;63.08;99781.69;5005468;28;20142;-85
2022/05/28 07:55:15;;;;;;;31.00;10.20;;;;;;;28.36;61.79;99785.34;5015467;28;20034;-89
2022/05/28 07:57:41;;;;;;;30.40;10.48;;;;;;;28.46;61.06;99777.81;5035910;28;20388;-89
2022/05/28 08:00:07;;;;;;;25.70;10.02;;;;;;;28.72;58.37;99772.75;5005437;28;20108;-88
2022/05/28 08:02:37;;;;;;;33.42;10.27;;;;;;;29.16;56.25;99764.03;5019669;28;20041;-87
2022/05/28 08:05:03;;;;;;;35.20;10.85;;;;;;;29.39;56.45;99763.06;5036577;28;20060;-85
2022/05/28 08:07:28;;;;;;;26.73;9.73;;;;;;;29.74;52.38;99769.66;5037374;28;20029;-87
2022/05/28 08:09:55;;;;;;;21.48;9.32;;;;;;;29.27;54.84;99775.59;5019019;28;20051;-85
2022/05/28 08:12:21;;;;;;;29.13;10.45;;;;;;;29.71;54.04;99768.38;5020369;28;20033;-87
2022/05/28 08:14:47;;;;;;;23.55;10.57;;;;;;;29.50;54.75;99769.91;5035029;28;20044;-85
2022/05/28 08:17:15;;;;;;;27.27;11.45;;;;;;;29.24;55.75;99766.84;4995126;28;20037;-86
2022/05/28 08:19:40;;;;;;;32.53;12.07;;;;;;;29.41;54.97;99769.00;4987642;28;20491;-87
2022/05/28 08:24:50;;;;;;;36.97;11.75;;;;;;;28.79;56.87;99770.47;5018543;28;20039;-87
2022/05/28 08:27:15;;;;;;;30.92;11.85;;;;;;;29.32;54.70;99762.66;5000541;28;20030;-89
2022/05/28 08:29:47;;;;;;;30.27;12.45;;;;;;;29.51;54.92;99757.88;5016682;28;20077;-85
2022/05/28 08:32:16;;;;;;;29.63;10.73;;;;;;;30.43;53.51;99764.84;4995395;28;20077;-88
2022/05/28 08:34:43;;;;;;;32.85;12.60;;;;;;;30.15;52.98;99762.22;5025623;28;20110;-86
2022/05/28 08:37:11;;;;;;;34.05;12.43;;;;;;;29.78;54.16;99770.69;5007696;28;20014;-86
2022/05/28 08:39:38;;;;;;;26.65;11.38;;;;;;;29.53;55.27;99763.84;4990039;28;20056;-85
2022/05/28 08:42:04;;;;;;;34.53;13.10;;;;;;;29.75;55.19;99765.84;5024337;28;20037;-85
2022/05/28 08:44:33;;;;;;;27.65;13.88;;;;;;;29.93;53.37;99773.09;5014852;28;20396;-85
2022/05/28 08:47:21;;;;;;;36.40;13.50;;;;;;;29.80;53.78;99768.44;5021604;28;20088;-86
2022/05/28 08:49:47;;;;;;;33.40;14.35;;;;;;;29.62;55.08;99772.13;5018300;28;20034;-87
2022/05/28 08:52:39;;;;;;;32.40;12.45;;;;;;;30.43;52.76;99765.66;5004955;28;20440;-88
2022/05/28 08:55:13;;;;;;;23.20;13.90;;;;;;;31.11;51.17;99767.19;5020764;28;20124;-86
2022/05/28 08:57:59;;;;;;;30.67;13.57;;;;;;;30.78;51.88;99766.69;5026686;28;20095;-85
2022/05/28 09:00:30;;;;;;;25.15;11.43;;;;;;;31.15;51.38;99760.78;5017726;28;20062;-88
2022/05/28 09:03:05;;;;;;;33.50;13.23;;;;;;;31.11;50.87;99764.44;5023088;28;20053;-90
2022/05/28 09:05:34;;;;;;;24.52;10.57;;;;;;;31.51;51.08;99755.09;5008047;28;20711;-87
2022/05/28 09:08:05;;;;;;;31.27;13.18;;;;;;;31.16;51.00;99767.03;5008719;28;20495;-87
2022/05/28 09:10:46;;;;;;;31.40;11.95;;;;;;;31.16;51.44;99751.41;5032103;28;20026;-86
2022/05/28 09:13:35;;;;;;;29.45;12.57;;;;;;;31.05;50.83;99754.78;5023592;28;20026;-86
2022/05/28 09:16:03;;;;;;;36.85;14.50;;;;;;;30.60;53.02;99754.00;5022616;28;20042;-86
2022/05/28 09:18:37;;;;;;;35.70;14.38;;;;;;;31.18;51.58;99754.66;5027767;28;20042;-85
2022/05/28 09:21:05;;;;;;;29.30;13.35;;;;;;;31.49;51.49;99748.28;4969349;28;20073;-84
2022/05/28 09:23:43;;;;;;;30.70;15.50;;;;;;;30.95;53.49;99750.34;5019840;28;20033;-87
2022/05/28 09:26:13;;;;;;;36.38;16.50;;;;;;;31.04;53.34;99759.44;5028342;28;20037;-85
2022/05/28 09:28:52;;;;;;;37.90;15.10;;;;;;;31.05;53.21;99739.16;5016451;28;20477;-85
2022/05/28 09:31:46;;;;;;;35.10;14.32;;;;;;;30.93;54.04;99738.09;5021556;28;20117;-85
2022/05/28 09:34:20;;;;;;;36.08;14.82;;;;;;;30.90;54.28;99731.31;5025687;28;20156;-85
2022/05/28 09:36:57;;;;;;;33.80;16.42;;;;;;;30.88;55.86;99732.75;5019882;28;20041;-85
2022/05/28 09:39:38;;;;;;;41.00;16.17;;;;;;;31.06;55.40;99729.81;5025839;28;20484;-85
2022/05/28 09:42:30;;;;;;;28.77;15.45;;;;;;;30.65;56.70;99732.81;5029827;28;20392;-84
2022/05/28 09:45:01;;;;;;;43.85;16.70;;;;;;;30.81;54.97;99726.94;5003767;28;20038;-84
2022/05/28 09:47:27;;;;;;;30.42;15.75;;;;;;;30.55;55.76;99727.63;5021679;28;20042;-86
2022/05/28 09:49:56;;;;;;;36.92;15.10;;;;;;;30.71;55.96;99730.75;5020305;28;20137;-85
2022/05/28 09:52:31;;;;;;;36.58;16.52;;;;;;;30.33;58.19;99724.06;5032268;28;20040;-84
2022/05/28 09:55:17;;;;;;;38.97;15.40;;;;;;;30.80;57.72;99725.31;5036808;28;20056;-85
2022/05/28 09:57:59;;;;;;;35.35;15.85;;;;;;;30.86;55.81;99724.84;5031031;28;20033;-85
2022/05/28 10:00:25;;;;;;;;;;;;;;;31.01;54.97;99716.28;5023545;28;20524;-85
2022/05/28 10:05:52;;;;;;;45.50;16.67;;;;;;;30.84;58.08;99715.34;5017207;28;20160;-83
2022/05/28 10:08:17;;;;;;;29.40;15.25;;;;;;;31.11;57.22;99709.69;5017199;28;20128;-86
2022/05/28 10:10:54;;;;;;;30.80;14.35;;;;;;;31.52;55.92;99712.09;5017591;28;20120;-84
2022/05/28 10:13:23;;;;;;;33.72;13.55;;;;;;;31.96;54.10;99709.03;4999896;28;20446;-86
2022/05/28 10:15:55;;;;;;;26.25;14.38;;;;;;;31.56;54.44;99704.81;5018122;28;20034;-83
2022/05/28 10:18:31;;;;;;;37.05;14.20;;;;;;;31.81;54.36;99701.31;5021448;28;20049;-84
2022/05/28 10:21:43;;;;;;;29.40;14.15;;;;;;;31.44;55.38;99702.69;5030074;28;20034;-85
2022/05/28 10:24:18;;;;;;;23.67;12.67;;;;;;;31.87;54.02;99704.69;5026857;28;20081;-84
2022/05/28 10:29:43;;;;;;;27.88;12.52;;;;;;;31.55;54.37;99695.81;5015321;28;20050;-92
2022/05/28 10:32:52;;;;;;;26.55;12.15;;;;;;;32.29;53.12;99695.63;5054037;23;20049;-89
2022/05/28 10:35:31;;;;;;;36.47;13.20;;;;;;;33.00;50.58;99688.50;5034719;28;20045;-92
2022/05/28 10:38:25;;;;;;;31.77;13.13;;;;;;;32.19;52.58;99696.78;5030752;28;20049;-90
2022/05/28 10:40:55;;;;;;;23.23;11.07;;;;;;;32.01;53.24;99700.66;5046713;28;20397;-91
2022/05/28 10:43:40;;;;;;;24.00;12.10;;;;;;;32.31;52.34;99690.66;4995026;28;20068;-91
2022/05/28 10:46:34;;;;;;;40.15;12.05;;;;;;;32.36;52.25;99686.91;4995610;28;20029;-91
2022/05/28 10:49:30;;;;;;;28.60;11.65;;;;;;;32.31;53.27;99681.59;5039622;28;20049;-91
2022/05/28 10:52:27;;;;;;;17.83;10.20;;;;;;;31.60;55.98;99683.88;5017380;28;20045;-90
2022/05/28 10:55:07;;;;;;;29.65;12.68;;;;;;;30.77;57.54;99672.84;5071567;23;20048;-90
2022/05/28 10:57:56;;;;;;;24.40;12.05;;;;;;;31.20;55.49;99669.44;5062064;28;20021;-91
2022/05/28 11:00:41;;;;;;;16.90;9.88;;;;;;;31.06;55.50;99672.31;5074859;23;20072;-91
2022/05/28 11:03:24;;;;;;;30.67;10.32;;;;;;;31.76;52.68;99666.63;5040493;28;20034;-94
2022/05/28 11:06:44;;;;;;;28.23;10.13;;;;;;;31.84;50.53;99661.47;5021355;28;20037;-89
2022/05/28 11:09:54;;;;;;;35.45;11.15;;;;;;;31.60;51.96;99656.50;5018487;28;20092;-92
2022/05/28 11:12:22;;;;;;;21.92;8.52;;;;;;;32.03;51.73;99660.00;4988938;23;20053;-92
2022/05/28 11:15:14;;;;;;;24.17;10.23;;;;;;;32.15;49.38;99640.97;5001643;28;20045;-91
2022/05/28 11:17:49;;;;;;;27.75;9.88;;;;;;;32.40;50.36;99646.72;5017341;28;20289;-90
2022/05/28 11:20:33;;;;;;;18.45;9.00;;;;;;;32.62;49.12;99641.03;5028159;28;20058;-91
2022/05/28 11:23:29;;;;;;;23.27;11.13;;;;;;;32.37;48.88;99622.69;5032894;28;20060;-91
2022/05/28 11:26:29;;;;;;;19.70;9.32;;;;;;;31.67;51.02;99629.41;5030405;28;20055;-90
2022/05/28 11:32:22;;;;;;;24.98;9.40;;;;;;;30.77;53.24;99628.25;5039452;28;20079;-82
2022/05/28 11:34:54;;;;;;;25.58;8.05;;;;;;;30.73;53.97;99621.78;5043097;28;20041;-87
2022/05/28 11:37:40;;;;;;;22.98;8.68;;;;;;;30.65;55.54;99619.84;5042776;28;20026;-84
2022/05/28 11:40:18;;;;;;;22.90;9.23;;;;;;;30.53;56.75;99603.22;5042414;28;20045;-85
2022/05/28 11:43:03;;;;;;;24.77;9.10;;;;;;;30.65;57.52;99608.91;5028200;28;20033;-88
2022/05/28 11:45:42;;;;;;;25.90;9.57;;;;;;;30.14;60.41;99612.16;5047323;28;20041;-84
2022/05/28 11:48:16;;;;;;;26.27;9.20;;;;;;;29.90;60.89;99598.84;5074538;22;20045;-89
2022/05/28 11:53:41;;;;;;;24.88;9.13;;;;;;;30.17;61.10;99567.81;5022458;28;20106;-89
2022/05/28 11:56:24;;;;;;;27.52;9.35;;;;;;;30.15;60.03;99561.84;5056034;28;20041;-89
2022/05/28 11:58:56;;;;;;;21.40;10.57;;;;;;;29.71;60.47;99562.69;5036237;28;20072;-91
2022/05/28 12:01:27;;;;;;;31.23;9.18;;;;;;;29.51;63.33;99541.34;5038901;28;20040;-91